Time;durP1;ratioP1;P1;durP2;ratioP2;P2;SDS_P1;SDS_P2;PMS_P1;PMS_P2;Temp;Humidity;BMP_temperature;BMP_pressure;BME280_temperature;BME280_humidity;BME280_pressure;Samples;Min_cycle;Max_cycle;Signal;HPM_P1;HPM_P2
2021/06/27 00:00:29;;;;;;;17.83;16.03;;;19.70;98.30;;;;;;5176718;22;20766;-80
2021/06/27 00:02:32;;;;;;;19.07;17.07;;;19.70;98.30;;;;;;5186559;23;20931;-81
2021/06/27 00:04:36;;;;;;;17.90;16.07;;;19.80;98.30;;;;;;5186859;23;20427;-81
2021/06/27 00:06:39;;;;;;;17.47;15.73;;;19.90;98.30;;;;;;5185729;23;20424;-81
2021/06/27 00:08:42;;;;;;;19.50;17.57;;;19.90;98.30;;;;;;5172829;23;20432;-81
2021/06/27 00:10:47;;;;;;;17.80;16.00;;;20.00;98.30;;;;;;5181338;22;20514;-81
2021/06/27 00:12:50;;;;;;;17.17;15.40;;;20.00;98.30;;;;;;5173930;23;21067;-81
2021/06/27 00:14:53;;;;;;;16.53;14.93;;;20.00;98.30;;;;;;5182128;23;20420;-81
2021/06/27 00:16:56;;;;;;;17.30;15.60;;;20.00;98.30;;;;;;5181597;23;20442;-81
2021/06/27 00:19:00;;;;;;;17.97;16.17;;;20.00;98.30;;;;;;5182128;23;20424;-81
2021/06/27 00:21:07;;;;;;;19.23;17.33;;;20.00;98.30;;;;;;5172505;22;20468;-81
2021/06/27 00:23:11;;;;;;;18.53;16.63;;;20.00;98.30;;;;;;5181559;23;20401;-82
2021/06/27 00:25:15;;;;;;;20.40;16.10;;;19.90;98.30;;;;;;5174810;23;20451;-81
2021/06/27 00:27:19;;;;;;;17.97;16.27;;;19.90;98.30;;;;;;5182521;23;20419;-81
2021/06/27 00:29:22;;;;;;;18.70;16.90;;;19.90;98.30;;;;;;5173579;23;20451;-81
2021/06/27 00:31:25;;;;;;;17.43;15.73;;;19.90;98.30;;;;;;5180512;22;20439;-81
2021/06/27 00:33:28;;;;;;;20.07;18.00;;;19.90;98.30;;;;;;5181086;23;20905;-81
2021/06/27 00:35:32;;;;;;;20.27;16.97;;;19.90;98.30;;;;;;5173880;23;20508;-81
2021/06/27 00:37:36;;;;;;;18.50;16.70;;;19.80;98.30;;;;;;5172813;23;20462;-81
2021/06/27 00:39:40;;;;;;;18.57;16.77;;;19.80;98.30;;;;;;5181049;22;20424;-81
2021/06/27 00:41:43;;;;;;;18.40;16.33;;;19.80;98.30;;;;;;5180067;23;20444;-81
2021/06/27 00:43:45;;;;;;;19.30;17.40;;;19.80;98.30;;;;;;5182145;23;20446;-81
2021/06/27 00:45:48;;;;;;;17.37;15.67;;;19.80;98.30;;;;;;5182076;23;20451;-81
2021/06/27 00:47:52;;;;;;;17.73;16.13;;;19.80;98.30;;;;;;5179276;23;20438;-81
2021/06/27 00:49:55;;;;;;;16.10;14.53;;;19.70;98.30;;;;;;5179049;22;20514;-81
2021/06/27 00:51:58;;;;;;;17.37;15.67;;;19.70;98.30;;;;;;5177771;23;20426;-81
2021/06/27 00:54:02;;;;;;;17.43;15.60;;;19.70;98.30;;;;;;5178492;23;20428;-81
2021/06/27 00:56:05;;;;;;;16.87;15.27;;;19.70;98.30;;;;;;5178334;23;20815;-81
2021/06/27 00:58:10;;;;;;;18.63;15.70;;;19.70;98.30;;;;;;5177894;23;20892;-81
2021/06/27 01:00:16;;;;;;;17.27;15.63;;;19.70;98.30;;;;;;5177643;22;20815;-81
2021/06/27 01:02:18;;;;;;;18.40;16.60;;;19.70;98.30;;;;;;5177100;23;20948;-81
2021/06/27 01:04:21;;;;;;;19.67;16.93;;;19.70;98.30;;;;;;5176994;23;20442;-81
2021/06/27 01:06:24;;;;;;;17.70;16.00;;;19.70;98.30;;;;;;5177846;23;20426;-81
2021/06/27 01:08:27;;;;;;;17.80;16.10;;;19.80;98.30;;;;;;5174412;23;20931;-81
2021/06/27 01:10:32;;;;;;;19.03;17.00;;;19.80;98.30;;;;;;5174263;22;20940;-81
2021/06/27 01:12:35;;;;;;;19.43;17.40;;;19.80;98.30;;;;;;5182269;23;20490;-81
2021/06/27 01:14:38;;;;;;;19.53;17.43;;;19.80;98.30;;;;;;5181850;23;20424;-81
2021/06/27 01:16:41;;;;;;;18.97;16.97;;;19.70;98.30;;;;;;5181625;23;20623;-81
2021/06/27 01:18:44;;;;;;;18.60;16.80;;;19.70;98.30;;;;;;5181440;23;20452;-81
2021/06/27 01:20:48;;;;;;;18.60;16.70;;;19.70;98.30;;;;;;5180637;22;20443;-81
2021/06/27 01:22:53;;;;;;;17.70;15.90;;;19.70;98.30;;;;;;5181483;23;20447;-81
2021/06/27 01:24:56;;;;;;;17.80;15.97;;;19.70;98.30;;;;;;5181391;23;20497;-80
2021/06/27 01:26:59;;;;;;;16.80;15.10;;;19.60;98.30;;;;;;5181209;23;20430;-81
2021/06/27 01:29:02;;;;;;;19.40;17.40;;;19.60;98.30;;;;;;5182626;23;20925;-81
2021/06/27 01:31:06;;;;;;;19.67;17.57;;;19.60;98.30;;;;;;5175375;22;20534;-81
2021/06/27 01:33:12;;;;;;;18.57;16.47;;;19.60;98.30;;;;;;5175618;23;20905;-82
2021/06/27 01:35:17;;;;;;;18.00;16.10;;;19.60;98.30;;;;;;5178294;23;20426;-81
2021/06/27 01:37:20;;;;;;;19.03;16.90;;;19.60;98.30;;;;;;5186713;23;20428;-81
2021/06/27 01:39:24;;;;;;;19.13;17.20;;;19.60;98.30;;;;;;5188191;23;20416;-81
2021/06/27 01:41:27;;;;;;;17.03;15.23;;;19.70;98.30;;;;;;5178840;22;20447;-81
2021/06/27 01:43:30;;;;;;;18.30;16.40;;;19.60;98.30;;;;;;5187867;23;20412;-81
2021/06/27 01:45:33;;;;;;;17.83;16.03;;;19.60;98.30;;;;;;5187146;23;20420;-81
2021/06/27 01:47:36;;;;;;;17.20;15.60;;;19.60;98.30;;;;;;5175073;23;20423;-82
2021/06/27 01:49:41;;;;;;;20.63;16.63;;;19.50;98.30;;;;;;5174873;22;20797;-82
2021/06/27 01:51:45;;;;;;;17.70;15.50;;;19.50;98.30;;;;;;5182125;23;20415;-81
2021/06/27 01:53:47;;;;;;;18.07;15.90;;;19.40;98.30;;;;;;5184674;23;20439;-81
2021/06/27 01:56:04;;;;;;;18.27;16.47;;;19.40;98.30;;;;;;5184979;23;20419;-81
2021/06/27 01:58:07;;;;;;;19.80;17.80;;;19.40;98.30;;;;;;5185399;23;20467;-81
2021/06/27 02:00:12;;;;;;;17.80;15.90;;;19.30;98.30;;;;;;5184729;22;20438;-81
2021/06/27 02:02:15;;;;;;;18.80;16.80;;;19.30;98.30;;;;;;5182198;23;20531;-81
2021/06/27 02:04:18;;;;;;;18.30;16.47;;;19.30;98.30;;;;;;5181894;23;20462;-82
2021/06/27 02:06:23;;;;;;;19.03;17.13;;;19.30;98.30;;;;;;5185826;23;20425;-82
2021/06/27 02:08:32;;;;;;;17.03;15.23;;;19.30;98.30;;;;;;5186761;23;20909;-82
2021/06/27 02:10:35;;;;;;;24.03;18.30;;;19.30;98.30;;;;;;5178206;22;20453;-82
2021/06/27 02:12:40;;;;;;;20.47;18.40;;;19.30;98.30;;;;;;5187435;23;20416;-82
2021/06/27 02:14:43;;;;;;;21.10;19.00;;;19.20;98.30;;;;;;5186934;23;20416;-82
2021/06/27 02:16:46;;;;;;;21.40;18.53;;;19.20;98.30;;;;;;5182721;23;20420;-81
2021/06/27 02:18:51;;;;;;;21.83;18.70;;;19.00;98.30;;;;;;5174715;23;20427;-81
2021/06/27 02:20:56;;;;;;;21.57;19.27;;;18.90;98.30;;;;;;5174759;22;20519;-82
2021/06/27 02:22:59;;;;;;;21.70;19.50;;;18.80;98.30;;;;;;5183273;23;20523;-81
2021/06/27 02:25:03;;;;;;;20.20;18.00;;;18.80;98.30;;;;;;5183583;23;20493;-81
2021/06/27 02:27:06;;;;;;;22.80;20.43;;;18.90;98.30;;;;;;5183127;23;20507;-81
2021/06/27 02:29:10;;;;;;;21.27;17.67;;;18.90;98.30;;;;;;5184273;23;21135;-81
2021/06/27 02:31:14;;;;;;;19.60;17.50;;;18.90;98.30;;;;;;5182279;22;20465;-81
2021/06/27 02:33:18;;;;;;;18.13;16.17;;;19.00;98.30;;;;;;5174808;23;20454;-81
2021/06/27 02:35:21;;;;;;;17.17;15.17;;;19.10;98.30;;;;;;5175620;23;20491;-81
2021/06/27 02:37:24;;;;;;;18.63;16.63;;;19.10;98.30;;;;;;5173131;23;20908;-81
2021/06/27 02:39:27;;;;;;;18.23;15.00;;;19.20;98.30;;;;;;5181008;23;20416;-81
2021/06/27 02:41:30;;;;;;;18.27;16.03;;;19.20;98.30;;;;;;5171675;22;20447;-81
2021/06/27 02:43:33;;;;;;;18.23;16.30;;;19.20;98.30;;;;;;5174899;23;20454;-81
2021/06/27 02:45:37;;;;;;;17.97;15.07;;;19.20;98.30;;;;;;5183483;23;20423;-81
2021/06/27 02:47:41;;;;;;;16.53;14.93;;;19.20;98.30;;;;;;5182497;23;20416;-81
2021/06/27 02:49:45;;;;;;;17.57;15.80;;;19.30;98.30;;;;;;5173868;22;20424;-80
2021/06/27 02:51:47;;;;;;;17.10;15.40;;;19.30;98.30;;;;;;5175811;23;20438;-81
2021/06/27 02:53:50;;;;;;;17.33;15.63;;;19.30;98.30;;;;;;5174229;23;20419;-81
2021/06/27 02:56:07;;;;;;;16.80;15.07;;;19.30;98.30;;;;;;5174186;23;20449;-81
2021/06/27 02:58:11;;;;;;;17.27;15.03;;;19.30;98.30;;;;;;5183131;23;20722;-81
2021/06/27 03:02:25;;;;;;;17.30;15.60;;;19.30;98.30;;;;;;5203600;22;20756;-81
2021/06/27 03:04:28;;;;;;;17.90;16.20;;;19.30;98.30;;;;;;5206835;22;20423;-81
2021/06/27 03:06:31;;;;;;;17.37;15.73;;;19.30;98.30;;;;;;5207580;22;20490;-81
2021/06/27 03:08:34;;;;;;;18.73;16.73;;;19.20;98.30;;;;;;5209426;22;20506;-80
2021/06/27 03:10:37;;;;;;;18.23;16.40;;;19.20;98.30;;;;;;5207413;22;20443;-80
2021/06/27 03:12:41;;;;;;;18.43;16.13;;;19.20;98.30;;;;;;5203201;22;21001;-80
2021/06/27 03:14:44;;;;;;;18.07;16.17;;;19.30;98.30;;;;;;5205695;22;20486;-83
2021/06/27 03:16:47;;;;;;;19.20;17.20;;;19.30;98.30;;;;;;5220673;22;20422;-83
2021/06/27 03:18:51;;;;;;;18.47;16.47;;;19.30;98.30;;;;;;5212847;22;20474;-83
2021/06/27 03:20:54;;;;;;;17.30;15.60;;;19.30;98.30;;;;;;5221180;22;20459;-82
2021/06/27 03:22:57;;;;;;;17.73;15.93;;;19.30;98.30;;;;;;5209204;22;20977;-81
2021/06/27 03:25:00;;;;;;;23.20;17.13;;;19.30;98.30;;;;;;5219628;22;20423;-81
2021/06/27 03:27:03;;;;;;;18.47;16.37;;;19.30;98.30;;;;;;5211009;22;20430;-81
2021/06/27 03:29:06;;;;;;;16.60;14.90;;;19.30;98.30;;;;;;5211428;22;20419;-81
2021/06/27 03:31:09;;;;;;;19.13;17.03;;;19.30;98.30;;;;;;5217562;22;20431;-80
2021/06/27 03:33:12;;;;;;;17.93;16.13;;;19.30;98.30;;;;;;5209538;22;20423;-81
2021/06/27 03:35:16;;;;;;;18.03;16.17;;;19.30;98.30;;;;;;5211327;22;20423;-84
2021/06/27 03:37:19;;;;;;;17.67;16.00;;;19.40;98.30;;;;;;5211117;22;20449;-83
2021/06/27 03:39:23;;;;;;;20.10;17.93;;;19.30;98.30;;;;;;5210913;22;20422;-83
2021/06/27 03:41:29;;;;;;;19.13;16.53;;;19.30;98.30;;;;;;5210633;22;20469;-83
2021/06/27 03:43:32;;;;;;;17.60;15.70;;;19.40;98.30;;;;;;5219513;22;20435;-83
2021/06/27 03:45:35;;;;;;;19.07;17.20;;;19.30;98.30;;;;;;5211247;22;20422;-82
2021/06/27 03:47:38;;;;;;;18.83;16.93;;;19.30;98.30;;;;;;5211246;22;20494;-84
2021/06/27 03:49:41;;;;;;;18.27;15.80;;;19.30;98.30;;;;;;5219714;22;20450;-83
2021/06/27 03:51:46;;;;;;;19.33;17.40;;;19.30;98.30;;;;;;5210795;22;20453;-84
2021/06/27 03:53:48;;;;;;;18.80;17.00;;;19.30;98.30;;;;;;5211159;22;20423;-83
2021/06/27 03:55:56;;;;;;;19.60;17.03;;;19.30;98.30;;;;;;5210867;22;20434;-83
2021/06/27 03:57:59;;;;;;;25.80;19.70;;;19.30;98.30;;;;;;5218492;22;20467;-84
2021/06/27 04:00:02;;;;;;;19.87;17.67;;;19.30;98.30;;;;;;5209469;22;20419;-83
2021/06/27 04:02:05;;;;;;;19.20;17.20;;;19.30;98.30;;;;;;5218673;22;20464;-84
2021/06/27 04:04:08;;;;;;;20.50;18.23;;;19.40;98.30;;;;;;5210381;22;20443;-83
2021/06/27 04:06:11;;;;;;;19.33;17.33;;;19.40;98.30;;;;;;5210576;22;20427;-83
2021/06/27 04:08:15;;;;;;;19.73;17.73;;;19.40;98.30;;;;;;5209992;22;20447;-81
2021/06/27 04:10:18;;;;;;;19.63;17.53;;;19.40;98.30;;;;;;5210133;22;20447;-82
2021/06/27 04:12:21;;;;;;;21.13;18.90;;;19.40;98.30;;;;;;5209381;22;20426;-80
2021/06/27 04:14:24;;;;;;;20.80;17.63;;;19.40;98.30;;;;;;5210496;22;20434;-81
2021/06/27 04:16:29;;;;;;;19.37;17.43;;;19.50;98.30;;;;;;5210326;22;20753;-81
2021/06/27 04:18:55;;;;;;;20.90;18.70;;;19.40;98.30;;;;;;5210247;22;20495;-81
2021/06/27 04:20:58;;;;;;;20.40;17.50;;;19.50;98.30;;;;;;5210283;22;20446;-81
2021/06/27 04:23:01;;;;;;;20.93;17.37;;;19.60;98.30;;;;;;5210197;22;20453;-81
2021/06/27 04:25:07;;;;;;;19.57;17.47;;;19.60;98.30;;;;;;5209940;22;20486;-81
2021/06/27 04:27:10;;;;;;;19.77;16.23;;;19.60;98.30;;;;;;5208940;22;20490;-81
2021/06/27 04:29:14;;;;;;;18.17;16.27;;;19.60;98.30;;;;;;5209419;22;20431;-80
2021/06/27 04:31:17;;;;;;;20.63;18.57;;;19.60;98.30;;;;;;5209435;22;20450;-81
2021/06/27 04:33:20;;;;;;;19.97;17.97;;;19.70;98.30;;;;;;5219208;22;20470;-80
2021/06/27 04:35:23;;;;;;;20.00;18.00;;;19.70;98.30;;;;;;5210056;22;20747;-81
2021/06/27 04:37:26;;;;;;;20.53;18.47;;;19.70;98.30;;;;;;5209439;22;20454;-81
2021/06/27 04:39:29;;;;;;;21.60;19.40;;;19.70;98.30;;;;;;5209706;22;20426;-80
2021/06/27 04:41:34;;;;;;;21.10;18.87;;;19.70;98.30;;;;;;5209192;22;21201;-80
2021/06/27 04:43:36;;;;;;;19.17;17.17;;;19.70;98.30;;;;;;5206160;22;20438;-80
2021/06/27 04:45:41;;;;;;;19.10;17.10;;;19.80;98.30;;;;;;5206981;22;20477;-80
2021/06/27 04:47:45;;;;;;;19.60;17.50;;;19.80;98.30;;;;;;5215041;22;20400;-80
2021/06/27 04:49:47;;;;;;;22.90;17.60;;;19.90;98.30;;;;;;5206347;22;20423;-81
2021/06/27 04:51:50;;;;;;;20.47;18.40;;;19.90;98.30;;;;;;5213856;22;20444;-80
2021/06/27 04:53:53;;;;;;;22.00;19.07;;;19.90;98.30;;;;;;5205891;22;20430;-80
2021/06/27 04:55:58;;;;;;;24.37;18.77;;;19.90;98.30;;;;;;5207144;22;20904;-80
2021/06/27 04:58:03;;;;;;;20.77;18.60;;;20.00;98.30;;;;;;5208784;22;20411;-83
2021/06/27 05:00:08;;;;;;;21.23;18.97;;;20.00;98.30;;;;;;5209805;22;20450;-83
2021/06/27 05:02:10;;;;;;;22.73;19.60;;;20.00;98.30;;;;;;5218269;22;20537;-83
2021/06/27 05:04:13;;;;;;;22.27;20.00;;;20.10;98.30;;;;;;5210069;22;20958;-83
2021/06/27 05:06:16;;;;;;;22.70;20.40;;;20.00;98.30;;;;;;5208155;22;20427;-81
2021/06/27 05:08:19;;;;;;;21.47;19.17;;;20.10;98.30;;;;;;5208453;22;20514;-80
2021/06/27 05:10:22;;;;;;;22.30;19.97;;;20.20;98.30;;;;;;5207743;22;20477;-82
2021/06/27 05:12:25;;;;;;;25.43;21.50;;;20.20;98.30;;;;;;5208282;22;20423;-81
2021/06/27 05:14:29;;;;;;;22.27;19.87;;;20.20;98.30;;;;;;5217621;22;20471;-80
2021/06/27 05:16:32;;;;;;;23.40;20.90;;;20.10;98.30;;;;;;5208519;22;20464;-80
2021/06/27 05:18:35;;;;;;;24.20;21.63;;;20.20;98.30;;;;;;5208202;22;20454;-81
2021/06/27 05:20:38;;;;;;;22.00;19.60;;;20.30;98.30;;;;;;5208360;22;20469;-81
2021/06/27 05:22:43;;;;;;;24.37;21.73;;;20.40;98.30;;;;;;5209413;22;20434;-82
2021/06/27 05:24:46;;;;;;;26.10;23.57;;;20.50;98.30;;;;;;5208316;22;20450;-81
2021/06/27 05:26:49;;;;;;;30.93;27.23;;;20.40;98.30;;;;;;5209244;22;20426;-81
2021/06/27 05:28:52;;;;;;;25.23;22.60;;;20.40;98.30;;;;;;5209022;22;20449;-82
2021/06/27 05:30:56;;;;;;;52.47;46.27;;;20.40;98.30;;;;;;5208430;22;20507;-81
2021/06/27 05:32:59;;;;;;;56.50;45.83;;;20.40;98.30;;;;;;5207830;22;20430;-82
2021/06/27 05:35:02;;;;;;;51.23;43.60;;;20.40;98.30;;;;;;5210556;22;20717;-81
2021/06/27 05:37:05;;;;;;;186.43;151.80;;;20.40;98.30;;;;;;5211834;22;20427;-82
2021/06/27 05:39:09;;;;;;;83.03;65.27;;;20.60;98.30;;;;;;5211613;22;20422;-81
2021/06/27 05:41:12;;;;;;;41.10;34.47;;;20.50;98.30;;;;;;5212717;22;20506;-82
2021/06/27 05:43:15;;;;;;;33.30;29.67;;;20.40;98.30;;;;;;5211735;22;20427;-81
2021/06/27 05:45:18;;;;;;;34.27;30.57;;;20.50;98.30;;;;;;5211667;22;20442;-81
2021/06/27 05:47:22;;;;;;;34.63;27.43;;;20.50;98.30;;;;;;5221349;22;20411;-82
2021/06/27 05:49:25;;;;;;;32.30;28.07;;;20.40;98.30;;;;;;5212214;22;20423;-81
2021/06/27 05:51:28;;;;;;;35.93;30.63;;;20.40;98.30;;;;;;5220437;22;20506;-82
2021/06/27 05:53:31;;;;;;;28.10;25.20;;;20.50;98.30;;;;;;5212194;22;20483;-81
2021/06/27 05:55:34;;;;;;;26.80;23.90;;;20.60;98.30;;;;;;5220679;22;20411;-82
2021/06/27 05:57:39;;;;;;;31.40;27.37;;;20.80;98.30;;;;;;5201425;22;20423;-82
2021/06/27 05:59:42;;;;;;;30.73;27.40;;;20.90;98.30;;;;;;5197810;22;20407;-82
2021/06/27 06:01:45;;;;;;;28.07;25.00;;;20.90;98.30;;;;;;5203647;22;20510;-81
2021/06/27 06:03:49;;;;;;;28.00;25.07;;;20.90;98.30;;;;;;5208942;22;20429;-81
2021/06/27 06:05:52;;;;;;;27.67;24.77;;;20.90;98.30;;;;;;5210073;22;20525;-81
2021/06/27 06:07:55;;;;;;;27.87;25.07;;;20.90;98.30;;;;;;5218780;22;20472;-82
2021/06/27 06:09:58;;;;;;;28.70;25.70;;;20.90;98.30;;;;;;5209716;22;20900;-82
2021/06/27 06:12:01;;;;;;;29.73;26.10;;;21.00;98.30;;;;;;5209736;22;20419;-82
2021/06/27 06:14:04;;;;;;;25.63;23.03;;;21.00;98.30;;;;;;5210516;22;20438;-83
2021/06/27 06:16:08;;;;;;;25.57;22.83;;;21.10;98.30;;;;;;5210372;22;20748;-82
2021/06/27 06:18:11;;;;;;;24.13;21.67;;;21.20;98.30;;;;;;5211714;22;20920;-81
2021/06/27 06:20:18;;;;;;;25.07;22.40;;;21.30;98.30;;;;;;5218664;22;20684;-82
2021/06/27 06:22:21;;;;;;;23.77;21.37;;;21.30;98.30;;;;;;5209677;22;20475;-82
2021/06/27 06:24:28;;;;;;;25.80;23.23;;;21.30;98.30;;;;;;5209662;22;20442;-82
2021/06/27 06:26:31;;;;;;;39.67;35.57;;;21.20;98.30;;;;;;5210794;22;20426;-82
2021/06/27 06:28:35;;;;;;;42.83;37.90;;;21.30;98.30;;;;;;5212631;22;20419;-82
2021/06/27 06:30:38;;;;;;;69.57;60.23;;;21.30;98.30;;;;;;5210183;22;20430;-82
2021/06/27 06:32:41;;;;;;;46.33;41.33;;;21.40;98.30;;;;;;5210263;22;20419;-83
2021/06/27 06:34:44;;;;;;;35.03;31.13;;;21.40;98.30;;;;;;5210940;22;20415;-82
2021/06/27 06:36:48;;;;;;;30.37;27.07;;;21.50;98.30;;;;;;5218822;22;20403;-82
2021/06/27 06:38:51;;;;;;;31.00;27.80;;;21.60;98.30;;;;;;5213350;22;20406;-82
2021/06/27 06:40:54;;;;;;;25.83;23.17;;;21.70;98.30;;;;;;5215612;22;20447;-82
2021/06/27 06:42:57;;;;;;;29.67;26.47;;;21.70;98.30;;;;;;5226619;22;20403;-83
2021/06/27 06:45:00;;;;;;;45.50;40.50;;;21.80;98.30;;;;;;5217833;22;20467;-84
2021/06/27 06:47:03;;;;;;;45.17;39.50;;;21.90;98.30;;;;;;5225936;22;20415;-83
2021/06/27 06:49:06;;;;;;;55.03;46.13;;;21.90;98.30;;;;;;5226159;22;20403;-83
2021/06/27 06:51:09;;;;;;;29.33;26.00;;;22.00;98.30;;;;;;5225814;22;20463;-83
2021/06/27 06:53:13;;;;;;;30.50;27.20;;;22.00;98.30;;;;;;5225850;22;20466;-83
2021/06/27 06:55:16;;;;;;;31.70;28.10;;;22.10;98.30;;;;;;5214830;22;20494;-83
2021/06/27 06:57:19;;;;;;;36.87;32.30;;;22.20;98.30;;;;;;5223451;22;20419;-82
2021/06/27 06:59:22;;;;;;;72.13;58.57;;;22.40;98.30;;;;;;5217600;22;20505;-84
2021/06/27 07:01:26;;;;;;;34.40;28.00;;;22.50;98.30;;;;;;5214817;22;20450;-83
2021/06/27 07:03:30;;;;;;;21.33;19.10;;;22.60;98.30;;;;;;5215884;22;20506;-82
2021/06/27 07:05:33;;;;;;;20.80;18.60;;;22.60;98.30;;;;;;5212911;22;20708;-83
2021/06/27 07:07:37;;;;;;;20.47;18.33;;;22.40;98.30;;;;;;5212224;22;20422;-85
2021/06/27 07:09:41;;;;;;;20.17;18.07;;;22.40;98.30;;;;;;5209989;22;20423;-82
2021/06/27 07:11:44;;;;;;;20.10;17.47;;;22.50;98.30;;;;;;5212168;22;20463;-82
2021/06/27 07:13:47;;;;;;;20.17;18.10;;;22.40;98.30;;;;;;5213276;22;20442;-82
2021/06/27 07:15:50;;;;;;;19.90;17.90;;;22.30;98.30;;;;;;5203681;22;20430;-82
2021/06/27 07:17:55;;;;;;;16.83;15.20;;;22.30;98.30;;;;;;5216403;22;20423;-82
2021/06/27 07:19:58;;;;;;;18.70;16.77;;;22.30;98.30;;;;;;5214470;22;20418;-82
2021/06/27 07:22:01;;;;;;;18.77;16.90;;;22.20;98.30;;;;;;5213500;22;20510;-82
2021/06/27 07:24:04;;;;;;;21.77;19.57;;;22.10;98.30;;;;;;5213402;22;20429;-82
2021/06/27 07:26:09;;;;;;;18.90;15.53;;;22.20;98.30;;;;;;5214255;22;20533;-82
2021/06/27 07:28:12;;;;;;;18.60;15.90;;;22.20;98.30;;;;;;5212800;22;20505;-82
2021/06/27 07:30:15;;;;;;;19.60;16.87;;;22.10;98.30;;;;;;5213117;22;20443;-84
2021/06/27 07:32:18;;;;;;;18.93;16.97;;;22.00;98.30;;;;;;5212611;22;20423;-85
2021/06/27 07:34:21;;;;;;;20.43;18.23;;;22.00;98.30;;;;;;5213088;22;20562;-82
2021/06/27 07:36:25;;;;;;;19.87;17.60;;;22.30;98.30;;;;;;5213222;22;20446;-82
2021/06/27 07:38:28;;;;;;;20.00;17.90;;;22.30;98.30;;;;;;5213374;22;20478;-82
2021/06/27 07:40:32;;;;;;;18.77;16.77;;;22.40;98.30;;;;;;5213041;22;20469;-82
2021/06/27 07:42:37;;;;;;;18.97;17.07;;;22.40;98.30;;;;;;5212204;22;20510;-82
2021/06/27 07:44:41;;;;;;;19.27;17.37;;;22.60;98.30;;;;;;5215328;22;20513;-82
2021/06/27 07:46:44;;;;;;;20.87;17.80;;;22.80;98.30;;;;;;5212500;22;20442;-84
2021/06/27 07:48:47;;;;;;;17.73;15.83;;;23.00;98.30;;;;;;5213603;22;20423;-82
2021/06/27 07:50:50;;;;;;;15.30;13.67;;;23.00;98.30;;;;;;5205288;22;21147;-82
2021/06/27 07:52:53;;;;;;;16.27;14.60;;;23.20;98.30;;;;;;5214116;22;20739;-83
2021/06/27 07:54:56;;;;;;;15.50;13.73;;;23.40;98.30;;;;;;5214199;22;20423;-82
2021/06/27 07:56:59;;;;;;;15.20;13.70;;;23.30;97.80;;;;;;5212709;22;20472;-83
2021/06/27 07:59:03;;;;;;;16.67;14.97;;;23.10;98.00;;;;;;5213139;22;20430;-83
2021/06/27 08:01:06;;;;;;;15.43;13.80;;;23.10;98.30;;;;;;5212659;22;20823;-82
2021/06/27 08:03:09;;;;;;;15.03;13.20;;;23.30;98.30;;;;;;5213952;22;20415;-84
2021/06/27 08:05:13;;;;;;;16.30;14.50;;;23.30;98.30;;;;;;5212119;22;20447;-82
2021/06/27 08:07:16;;;;;;;15.60;14.07;;;23.50;97.70;;;;;;5210686;22;20833;-85
2021/06/27 08:09:20;;;;;;;61.03;49.60;;;23.70;98.00;;;;;;5212699;22;20904;-83
2021/06/27 08:11:23;;;;;;;111.53;84.20;;;23.80;98.00;;;;;;5212071;22;20534;-82
2021/06/27 08:13:26;;;;;;;20.27;17.33;;;23.90;97.90;;;;;;5212901;22;20476;-85
2021/06/27 08:15:31;;;;;;;14.70;13.20;;;23.90;96.20;;;;;;5212850;22;20423;-82
2021/06/27 08:17:34;;;;;;;16.17;14.40;;;23.70;96.20;;;;;;5212779;22;20423;-82
2021/06/27 08:19:37;;;;;;;37.23;31.90;;;23.70;96.30;;;;;;5211240;22;20422;-83
2021/06/27 08:21:40;;;;;;;26.70;23.63;;;23.70;96.60;;;;;;5212320;22;20450;-83
2021/06/27 08:23:43;;;;;;;29.23;26.00;;;23.80;97.20;;;;;;5212733;22;20931;-83
2021/06/27 08:25:46;;;;;;;24.60;21.60;;;23.90;97.00;;;;;;5212119;22;20438;-81
2021/06/27 08:27:51;;;;;;;18.60;14.77;;;24.00;96.90;;;;;;5212947;22;20430;-83
2021/06/27 08:29:54;;;;;;;15.83;13.40;;;24.10;97.20;;;;;;5212562;22;20423;-84
2021/06/27 08:31:58;;;;;;;16.27;14.70;;;24.10;97.00;;;;;;5212651;22;20483;-83
2021/06/27 08:34:01;;;;;;;14.87;13.30;;;24.20;96.50;;;;;;5211941;22;20430;-81
2021/06/27 08:36:05;;;;;;;14.27;12.70;;;24.00;96.50;;;;;;5213125;22;20450;-83
2021/06/27 08:38:10;;;;;;;14.33;12.87;;;23.80;96.00;;;;;;5211447;22;20423;-83
2021/06/27 08:40:16;;;;;;;13.63;12.00;;;23.90;96.40;;;;;;5211412;22;20530;-83
2021/06/27 08:42:20;;;;;;;13.20;11.90;;;24.10;97.20;;;;;;5211516;22;20423;-82
2021/06/27 08:44:24;;;;;;;12.67;11.40;;;24.10;96.10;;;;;;5212005;22;20510;-83
2021/06/27 08:46:28;;;;;;;15.80;13.50;;;24.20;96.20;;;;;;5210097;22;20445;-82
2021/06/27 08:48:37;;;;;;;15.90;14.30;;;24.50;96.70;;;;;;5203546;22;20457;-83
2021/06/27 08:50:40;;;;;;;14.60;13.20;;;24.50;95.80;;;;;;5212245;22;20445;-83
2021/06/27 08:52:44;;;;;;;13.77;12.43;;;24.60;95.80;;;;;;5212155;22;20483;-83
2021/06/27 08:54:49;;;;;;;15.37;13.67;;;24.70;94.70;;;;;;5212440;22;20494;-83
2021/06/27 08:56:52;;;;;;;14.43;12.97;;;24.70;94.90;;;;;;5211436;22;20406;-84
2021/06/27 08:58:57;;;;;;;14.80;13.20;;;24.80;94.50;;;;;;5211717;22;20430;-83
2021/06/27 09:01:01;;;;;;;13.33;11.93;;;24.80;94.40;;;;;;5211441;22;20450;-84
2021/06/27 09:03:06;;;;;;;12.97;11.67;;;24.80;94.70;;;;;;5212396;22;20487;-85
2021/06/27 09:05:11;;;;;;;14.47;12.97;;;24.90;94.20;;;;;;5209701;22;20449;-84
2021/06/27 09:07:32;;;;;;;14.77;13.30;;;25.00;94.10;;;;;;5195023;22;20431;-84
2021/06/27 09:09:37;;;;;;;13.60;12.30;;;25.10;93.70;;;;;;5204515;22;20422;-85
2021/06/27 09:11:41;;;;;;;14.70;13.30;;;25.10;94.50;;;;;;5202640;22;20438;-84
2021/06/27 09:13:45;;;;;;;14.07;12.60;;;25.30;94.10;;;;;;5203035;22;20429;-84
2021/06/27 09:15:51;;;;;;;12.57;11.27;;;25.20;95.00;;;;;;5194662;22;20943;-84
2021/06/27 09:17:54;;;;;;;15.07;13.53;;;25.40;95.10;;;;;;5194595;22;20419;-84
2021/06/27 09:20:03;;;;;;;13.70;12.40;;;25.50;94.40;;;;;;5194395;22;20510;-84
2021/06/27 09:22:14;;;;;;;15.57;13.60;;;25.50;94.50;;;;;;5194349;22;20411;-84
2021/06/27 09:24:27;;;;;;;14.17;12.30;;;25.30;94.20;;;;;;5202907;22;20815;-85
2021/06/27 09:26:32;;;;;;;14.30;13.10;;;25.10;94.80;;;;;;5202771;22;20749;-84
2021/06/27 09:28:44;;;;;;;15.87;14.37;;;25.00;94.90;;;;;;5194356;22;20503;-84
2021/06/27 09:30:49;;;;;;;14.90;13.47;;;25.20;94.60;;;;;;5193850;22;20478;-84
2021/06/27 09:32:55;;;;;;;14.67;13.17;;;25.50;94.80;;;;;;5202809;22;20490;-85
2021/06/27 09:34:58;;;;;;;12.60;11.40;;;25.80;94.10;;;;;;5194112;22;20804;-84
2021/06/27 09:37:01;;;;;;;13.10;11.80;;;26.00;93.50;;;;;;5202213;22;20445;-83
2021/06/27 09:39:15;;;;;;;13.10;11.80;;;26.40;92.80;;;;;;5204900;22;20408;-83
2021/06/27 09:41:21;;;;;;;14.00;12.70;;;26.70;91.60;;;;;;5202483;22;20439;-84
2021/06/27 09:43:28;;;;;;;14.97;13.53;;;26.50;91.10;;;;;;5202722;22;20442;-85
2021/06/27 09:45:46;;;;;;;13.80;12.57;;;26.50;90.70;;;;;;5202900;22;20484;-85
2021/06/27 09:48:04;;;;;;;11.83;10.73;;;26.30;91.30;;;;;;5194919;22;20438;-84
2021/06/27 09:50:29;;;;;;;16.03;12.27;;;26.30;92.50;;;;;;5203257;22;20442;-84
2021/06/27 09:52:36;;;;;;;12.60;11.40;;;26.40;91.80;;;;;;5203022;22;20419;-84
2021/06/27 09:54:41;;;;;;;13.33;12.00;;;26.70;91.40;;;;;;5203253;22;20434;-83
2021/06/27 09:56:44;;;;;;;12.80;11.50;;;26.90;90.30;;;;;;5194414;22;20418;-84
2021/06/27 09:59:02;;;;;;;13.67;12.33;;;27.00;90.00;;;;;;5203333;22;20460;-84
2021/06/27 10:01:21;;;;;;;14.00;12.60;;;27.20;90.00;;;;;;5193508;22;20450;-84
2021/06/27 10:03:41;;;;;;;13.80;12.47;;;27.20;89.00;;;;;;5195885;22;20403;-84
2021/06/27 10:05:44;;;;;;;16.03;12.10;;;27.00;88.70;;;;;;5195894;22;20483;-83
2021/06/27 10:07:47;;;;;;;14.40;12.40;;;26.80;89.10;;;;;;5204107;22;20525;-84
2021/06/27 10:09:51;;;;;;;12.50;11.40;;;27.00;89.30;;;;;;5195754;22;20427;-83
2021/06/27 10:11:59;;;;;;;12.40;11.13;;;27.10;89.30;;;;;;5195816;22;20427;-84
2021/06/27 10:14:08;;;;;;;11.93;10.73;;;27.30;89.10;;;;;;5202310;22;20411;-84
2021/06/27 10:16:15;;;;;;;13.03;11.80;;;27.20;89.20;;;;;;5193686;22;20736;-84
2021/06/27 10:18:21;;;;;;;13.17;11.07;;;27.30;88.90;;;;;;5202571;22;20411;-84
2021/06/27 10:20:24;;;;;;;12.40;11.30;;;27.30;88.80;;;;;;5201877;22;20497;-84
2021/06/27 10:22:27;;;;;;;12.57;11.27;;;27.40;88.40;;;;;;5193613;22;20427;-82
2021/06/27 10:24:31;;;;;;;12.43;11.23;;;27.50;87.90;;;;;;5194276;22;20427;-83
2021/06/27 10:26:40;;;;;;;12.30;11.20;;;27.60;87.20;;;;;;5202854;22;20413;-84
2021/06/27 10:28:44;;;;;;;12.10;11.00;;;27.40;87.80;;;;;;5194461;22;20936;-84
2021/06/27 10:30:49;;;;;;;11.20;10.00;;;27.60;87.60;;;;;;5202259;22;20442;-84